Time;durP1;ratioP1;P1;durP2;ratioP2;P2;SDS_P1;SDS_P2;PMS_P1;PMS_P2;Temp;Humidity;BMP_temperature;BMP_pressure;BME280_temperature;BME280_humidity;BME280_pressure;Samples;Min_cycle;Max_cycle;Signal;HPM_P1;HPM_P2
2022/01/02 00:04:00;;;;;;;256.23;23.55;;;;;;;7.43;69.73;100468.06;10410157;28;20072;-79
2022/01/02 00:09:06;;;;;;;297.40;27.13;;;;;;;7.46;69.53;100441.91;10403665;28;20085;-79
2022/01/02 00:14:14;;;;;;;118.07;15.45;;;;;;;7.54;69.72;100411.25;10404261;28;20123;-79
2022/01/02 00:19:27;;;;;;;368.98;21.48;;;;;;;7.65;69.52;100411.63;10401572;28;20140;-79
2022/01/02 00:24:31;;;;;;;231.48;17.73;;;;;;;7.66;69.67;100396.88;10403042;28;20057;-79
2022/01/02 00:29:36;;;;;;;327.75;20.70;;;;;;;7.63;70.02;100397.84;10401947;28;20940;-79
2022/01/02 00:34:40;;;;;;;202.60;16.52;;;;;;;7.52;69.98;100399.19;10401799;28;20088;-79
2022/01/02 00:39:43;;;;;;;332.40;24.27;;;;;;;7.63;69.96;100373.59;10401822;28;20065;-79
2022/01/02 00:45:04;;;;;;;354.95;21.70;;;;;;;7.78;69.95;100375.53;10401096;28;20088;-79
2022/01/02 00:50:06;;;;;;;;;;;;;;;7.21;70.73;100383.94;10401660;28;20081;-79
2022/01/02 00:55:12;;;;;;;;;;;;;;;7.29;71.08;100371.47;10401897;28;19987;-79
2022/01/02 01:00:16;;;;;;;512.78;28.65;;;;;;;7.66;69.94;100361.28;10410015;28;20018;-79
2022/01/02 01:05:31;;;;;;;565.10;31.50;;;;;;;7.69;69.91;100350.72;10400931;28;20573;-79
2022/01/02 01:10:36;;;;;;;385.90;25.65;;;;;;;7.67;70.25;100336.94;10401389;28;20053;-79
2022/01/02 01:15:38;;;;;;;437.48;27.13;;;;;;;7.63;69.94;100343.16;10408730;28;20084;-78
2022/01/02 01:20:43;;;;;;;378.10;24.60;;;;;;;7.72;70.07;100339.34;10399974;28;20045;-79
2022/01/02 01:25:46;;;;;;;446.17;32.03;;;;;;;7.74;70.27;100341.00;10400311;28;20092;-79
2022/01/02 01:30:48;;;;;;;367.10;25.38;;;;;;;7.79;70.07;100340.81;10399767;28;20069;-79
2022/01/02 01:35:50;;;;;;;258.05;21.98;;;;;;;7.83;69.97;100335.38;10400517;28;20065;-79
2022/01/02 01:41:08;;;;;;;653.72;35.78;;;;;;;7.79;70.29;100333.00;10399887;28;20798;-79
2022/01/02 01:46:09;;;;;;;663.40;35.40;;;;;;;7.82;70.20;100320.69;10400233;28;20088;-78
2022/01/02 01:51:11;;;;;;;601.63;35.50;;;;;;;7.79;70.30;100305.16;10399006;28;20172;-79
2022/01/02 01:56:13;;;;;;;423.80;23.80;;;;;;;7.71;70.35;100335.88;10399529;28;20738;-80
2022/01/02 02:01:15;;;;;;;376.58;21.45;;;;;;;7.64;70.86;100354.44;10398537;28;20053;-79
2022/01/02 02:06:17;;;;;;;433.90;26.38;;;;;;;7.72;70.54;100345.41;10398800;28;20053;-79
2022/01/02 02:11:20;;;;;;;554.47;29.40;;;;;;;7.82;70.21;100338.91;10398514;28;20092;-79
2022/01/02 02:16:23;;;;;;;417.27;20.63;;;;;;;7.77;70.29;100321.78;10398800;28;20115;-79
2022/01/02 02:21:31;;;;;;;444.42;21.77;;;;;;;7.59;70.50;100326.00;10398009;28;20167;-80
2022/01/02 02:26:34;;;;;;;383.60;21.67;;;;;;;7.49;70.53;100305.63;10397129;28;20053;-79
2022/01/02 02:31:36;;;;;;;393.92;24.63;;;;;;;7.44;70.62;100307.56;10398015;28;20122;-79
2022/01/02 02:36:37;;;;;;;383.35;27.17;;;;;;;7.53;70.25;100321.03;10397512;28;20128;-79
2022/01/02 02:41:42;;;;;;;380.77;23.92;;;;;;;7.48;70.70;100320.41;10397949;28;20049;-79
2022/01/02 02:52:12;;;;;;;326.83;21.13;;;;;;;7.31;71.08;100311.56;10398068;28;20088;-79
2022/01/02 02:57:14;;;;;;;165.25;15.68;;;;;;;7.33;70.84;100310.59;10396670;28;20081;-79
2022/01/02 03:02:16;;;;;;;585.88;27.92;;;;;;;7.35;70.58;100293.16;10398341;28;20929;-80
2022/01/02 03:07:18;;;;;;;209.57;15.52;;;;;;;7.40;70.57;100288.63;10403191;28;20184;-79
2022/01/02 03:12:20;;;;;;;328.20;18.38;;;;;;;7.28;70.43;100281.34;10401872;28;20148;-79
2022/01/02 03:17:21;;;;;;;325.65;18.77;;;;;;;7.37;70.55;100264.47;10402541;28;20053;-79
2022/01/02 03:22:23;;;;;;;462.90;24.13;;;;;;;7.41;70.40;100246.09;10401472;28;20495;-79
2022/01/02 03:27:25;;;;;;;259.50;16.67;;;;;;;7.40;70.29;100247.00;10403040;28;20092;-78
2022/01/02 03:32:27;;;;;;;148.82;15.73;;;;;;;7.39;70.21;100257.44;10401996;28;20104;-79
2022/01/02 03:37:29;;;;;;;251.10;16.08;;;;;;;7.28;70.49;100234.50;10413747;28;20092;-79
2022/01/02 03:42:31;;;;;;;79.85;12.43;;;;;;;7.33;70.39;100242.94;10414371;28;20431;-79
2022/01/02 03:47:33;;;;;;;120.85;13.38;;;;;;;7.31;70.43;100249.97;10415242;28;20108;-79
2022/01/02 03:52:34;;;;;;;202.43;16.40;;;;;;;7.37;69.99;100230.66;10414623;28;20564;-79
2022/01/02 03:57:37;;;;;;;69.97;11.70;;;;;;;7.39;69.94;100224.47;10416380;28;20081;-79
2022/01/02 04:02:40;;;;;;;311.02;21.88;;;;;;;7.39;69.86;100216.69;10414573;28;20049;-79
2022/01/02 04:07:43;;;;;;;117.10;12.82;;;;;;;7.31;69.72;100215.31;10410252;28;20053;-79
2022/01/02 04:12:45;;;;;;;38.28;11.02;;;;;;;7.22;70.16;100208.75;10408286;28;20053;-79
2022/01/02 04:17:47;;;;;;;142.23;15.32;;;;;;;7.19;70.01;100208.88;10409837;28;20139;-79
2022/01/02 04:22:49;;;;;;;48.83;11.25;;;;;;;7.15;70.11;100202.94;10408314;28;20145;-79
2022/01/02 04:27:51;;;;;;;83.25;14.25;;;;;;;7.19;69.79;100186.31;10410676;28;20089;-79
2022/01/02 04:32:53;;;;;;;52.95;12.40;;;;;;;7.10;70.05;100188.47;10407859;28;20485;-79
2022/01/02 04:37:55;;;;;;;198.07;13.65;;;;;;;7.08;70.04;100185.06;10408562;28;20458;-79
2022/01/02 04:42:56;;;;;;;34.30;10.77;;;;;;;7.07;70.07;100181.63;10408265;28;20140;-78
2022/01/02 04:47:58;;;;;;;60.17;10.50;;;;;;;7.06;70.01;100171.28;10402980;28;20061;-79
2022/01/02 04:53:00;;;;;;;77.95;11.02;;;;;;;7.02;70.11;100182.72;10401872;28;20058;-80
2022/01/02 04:58:02;;;;;;;14.90;8.43;;;;;;;7.08;70.01;100164.28;10401731;28;20127;-80
2022/01/02 05:03:04;;;;;;;38.15;12.05;;;;;;;6.99;69.92;100155.09;10401068;28;20049;-79
2022/01/02 05:08:06;;;;;;;33.35;12.55;;;;;;;7.03;69.58;100151.44;10401421;28;20068;-79
2022/01/02 05:13:07;;;;;;;19.23;10.10;;;;;;;7.03;69.62;100161.00;10401478;28;20053;-79
2022/01/02 05:18:09;;;;;;;14.10;8.32;;;;;;;6.78;69.99;100171.56;10400728;28;20514;-79
2022/01/02 05:23:11;;;;;;;16.95;8.90;;;;;;;6.86;70.24;100155.63;10399800;28;20053;-79
2022/01/02 05:28:13;;;;;;;12.70;7.68;;;;;;;6.98;69.61;100161.19;10401088;28;20148;-79
2022/01/02 05:33:15;;;;;;;18.17;9.60;;;;;;;6.84;69.82;100167.84;10400592;28;20089;-79
2022/01/02 05:38:19;;;;;;;22.55;10.93;;;;;;;6.92;69.93;100160.59;10401543;28;21009;-79
2022/01/02 05:43:21;;;;;;;15.98;8.93;;;;;;;7.02;69.81;100173.16;10399106;28;20057;-80
2022/01/02 05:48:22;;;;;;;23.55;10.73;;;;;;;7.03;69.49;100164.44;10399485;28;20064;-79
2022/01/02 05:53:25;;;;;;;21.42;10.77;;;;;;;7.06;69.56;100168.69;10398533;28;20467;-79
2022/01/02 05:58:27;;;;;;;23.70;10.90;;;;;;;7.15;69.39;100150.94;10399545;28;20484;-79
2022/01/02 06:03:29;;;;;;;22.85;10.18;;;;;;;7.04;69.28;100141.91;10398674;28;20477;-78
2022/01/02 06:08:31;;;;;;;26.23;11.48;;;;;;;6.99;69.49;100112.63;10400023;28;20065;-78
2022/01/02 06:13:33;;;;;;;12.23;8.60;;;;;;;7.03;69.73;100107.25;10397993;28;20491;-78
2022/01/02 06:18:35;;;;;;;16.92;9.50;;;;;;;7.03;69.30;100114.19;10398906;28;20061;-79
2022/01/02 06:23:36;;;;;;;29.35;12.73;;;;;;;7.06;69.45;100122.69;10397856;28;20141;-79
2022/01/02 06:28:38;;;;;;;25.02;11.77;;;;;;;6.95;69.59;100114.53;10398794;28;20113;-79
2022/01/02 06:33:40;;;;;;;92.43;13.88;;;;;;;7.06;69.76;100109.69;10400089;28;20088;-79
2022/01/02 06:38:42;;;;;;;161.27;16.60;;;;;;;6.98;69.56;100106.59;10397351;28;20111;-79
2022/01/02 06:43:43;;;;;;;79.78;13.63;;;;;;;6.86;70.03;100103.66;10396938;28;20604;-79
2022/01/02 06:48:46;;;;;;;596.50;28.38;;;;;;;6.93;69.97;100092.94;10396914;28;20084;-79
2022/01/02 06:54:07;;;;;;;503.67;23.90;;;;;;;7.07;69.73;100092.34;10397520;28;20063;-78
2022/01/02 06:59:09;;;;;;;233.27;21.67;;;;;;;7.21;69.83;100084.78;10396704;28;20088;-79
2022/01/02 07:04:11;;;;;;;197.32;21.58;;;;;;;7.07;69.54;100077.59;10396005;28;20089;-79
2022/01/02 07:09:13;;;;;;;83.32;19.73;;;;;;;7.15;69.62;100087.66;10396114;28;20127;-79
2022/01/02 07:14:14;;;;;;;134.88;25.05;;;;;;;7.15;69.20;100070.31;10396489;28;20535;-78
2022/01/02 07:19:16;;;;;;;47.22;15.82;;;;;;;7.02;69.67;100068.31;10395086;28;20561;-78
2022/01/02 07:24:19;;;;;;;54.75;18.52;;;;;;;6.99;69.67;100061.47;10395384;28;21085;-79
2022/01/02 07:29:21;;;;;;;268.05;19.33;;;;;;;7.02;69.71;100039.72;10396685;28;20054;-78
2022/01/02 07:34:22;;;;;;;417.90;24.65;;;;;;;6.96;69.54;100055.53;10395267;28;20499;-78
2022/01/02 07:39:24;;;;;;;402.63;19.65;;;;;;;6.81;70.23;100038.88;10395268;28;20081;-78
2022/01/02 07:44:26;;;;;;;106.72;18.02;;;;;;;6.81;70.41;100027.63;10396218;28;20064;-79
2022/01/02 07:49:28;;;;;;;60.60;17.23;;;;;;;6.74;70.61;100039.19;10395091;28;20053;-78
2022/01/02 07:54:30;;;;;;;899.40;40.78;;;;;;;6.68;70.67;100026.44;10396650;28;20069;-78
2022/01/02 07:59:33;;;;;;;222.40;31.70;;;;;;;6.68;70.62;100026.44;10397842;28;20148;-78
2022/01/02 08:04:54;;;;;;;31.88;17.90;;;;;;;6.75;70.37;100025.28;10387992;28;20580;-78
2022/01/02 08:09:56;;;;;;;35.97;16.80;;;;;;;6.79;70.36;100039.84;10395369;28;20148;-78
2022/01/02 08:14:58;;;;;;;70.88;22.80;;;;;;;6.77;70.20;100033.88;10395908;28;20057;-79
2022/01/02 08:20:00;;;;;;;239.10;30.00;;;;;;;6.79;69.99;100024.25;10396264;28;20083;-78
2022/01/02 08:25:03;;;;;;;49.53;19.85;;;;;;;6.85;69.92;100023.97;10402162;28;20118;-78
2022/01/02 08:30:06;;;;;;;31.75;16.58;;;;;;;6.79;70.11;100016.44;10402676;28;20050;-78
2022/01/02 08:35:07;;;;;;;42.65;18.98;;;;;;;6.78;70.17;100014.75;10400781;28;20430;-78
2022/01/02 08:40:09;;;;;;;17.42;12.85;;;;;;;6.91;70.07;99989.91;10402640;28;20088;-78
2022/01/02 08:45:11;;;;;;;20.65;13.55;;;;;;;6.99;69.88;99987.81;10395018;28;20061;-77
2022/01/02 08:50:13;;;;;;;15.85;11.55;;;;;;;7.08;69.92;99982.22;10398268;28;20105;-77
2022/01/02 08:55:15;;;;;;;20.02;13.55;;;;;;;7.08;69.45;99969.22;10396418;28;20071;-78
2022/01/02 09:00:17;;;;;;;31.27;16.75;;;;;;;7.13;69.53;99959.44;10395826;28;20085;-78
2022/01/02 09:05:19;;;;;;;33.67;18.05;;;;;;;7.11;69.41;99920.50;10395630;28;20453;-78
2022/01/02 09:10:21;;;;;;;29.13;14.65;;;;;;;7.23;69.33;99923.44;10400197;28;20737;-78
2022/01/02 09:15:23;;;;;;;26.58;16.85;;;;;;;7.20;69.42;99917.47;10405726;28;20085;-78
2022/01/02 09:20:25;;;;;;;44.97;18.67;;;;;;;7.10;69.70;99912.78;10398105;28;20057;-78
2022/01/02 09:25:27;;;;;;;31.50;17.42;;;;;;;7.02;70.02;99910.53;10397032;28;20099;-78
2022/01/02 09:30:30;;;;;;;27.67;17.50;;;;;;;7.14;69.66;99917.75;10392128;28;20793;-78
2022/01/02 09:35:32;;;;;;;40.58;21.88;;;;;;;7.21;69.81;99936.53;10399460;28;20057;-79
2022/01/02 09:40:36;;;;;;;39.55;19.70;;;;;;;7.18;69.73;99953.13;10400247;28;20145;-78
2022/01/02 09:45:41;;;;;;;24.40;16.55;;;;;;;7.13;69.89;99938.66;10397578;28;20445;-78
2022/01/02 09:50:48;;;;;;;27.42;16.40;;;;;;;7.19;69.98;99961.78;10388190;28;20061;-78
2022/01/02 09:55:51;;;;;;;20.20;14.18;;;;;;;7.15;69.84;99955.88;10390630;28;20049;-78
2022/01/02 10:00:54;;;;;;;17.75;12.88;;;;;;;7.18;70.07;99947.09;10398015;28;20104;-79
2022/01/02 10:06:02;;;;;;;30.48;17.20;;;;;;;7.17;70.01;99924.59;10398421;28;20057;-78
2022/01/02 10:11:24;;;;;;;25.33;15.25;;;;;;;7.19;70.02;99902.81;10400573;28;20081;-80
2022/01/02 10:16:33;;;;;;;27.30;15.68;;;;;;;7.24;69.93;99883.53;10402712;28;20057;-81
2022/01/02 10:21:39;;;;;;;23.80;15.60;;;;;;;7.39;69.71;99893.19;10419295;28;20083;-81
2022/01/02 10:27:04;;;;;;;20.33;14.10;;;;;;;7.41;69.45;99876.59;10418145;28;20270;-81
2022/01/02 10:32:28;;;;;;;26.05;15.85;;;;;;;7.46;69.21;99873.78;10416547;28;20455;-81
2022/01/02 10:37:33;;;;;;;20.65;14.50;;;;;;;7.45;69.24;99844.31;10417872;28;20072;-83
2022/01/02 10:42:57;;;;;;;19.20;12.85;;;;;;;7.29;69.55;99842.53;10399842;28;20549;-82
2022/01/02 10:47:59;;;;;;;19.42;13.10;;;;;;;7.28;69.94;99861.66;10398193;28;20081;-82
2022/01/02 10:53:21;;;;;;;19.90;13.38;;;;;;;7.35;69.54;99861.28;10396300;28;20056;-82
2022/01/02 10:58:26;;;;;;;21.75;14.13;;;;;;;7.17;70.16;99851.75;10396480;28;20162;-79
2022/01/02 11:03:30;;;;;;;17.70;12.60;;;;;;;7.32;69.99;99821.59;10394016;28;20053;-81
2022/01/02 11:08:36;;;;;;;23.05;14.68;;;;;;;7.49;69.82;99783.41;10394997;28;20065;-80
2022/01/02 11:13:39;;;;;;;21.65;12.77;;;;;;;7.78;69.45;99784.56;10395559;28;20451;-80
2022/01/02 11:18:46;;;;;;;16.42;12.70;;;;;;;7.99;69.08;99797.34;10395796;28;21049;-80
2022/01/02 11:24:10;;;;;;;17.77;13.40;;;;;;;8.10;68.16;99786.38;10386691;28;20139;-80
2022/01/02 11:29:14;;;;;;;20.08;12.57;;;;;;;8.13;68.42;99782.78;10403383;28;20089;-80
2022/01/02 11:34:31;;;;;;;16.88;11.98;;;;;;;7.98;68.78;99792.19;10397349;28;20092;-81
2022/01/02 11:39:59;;;;;;;24.10;14.73;;;;;;;7.95;68.80;99787.16;10394315;28;20096;-80
2022/01/02 11:45:06;;;;;;;17.20;13.00;;;;;;;8.04;69.11;99794.47;10393392;28;20119;-80
2022/01/02 11:50:39;;;;;;;17.20;12.68;;;;;;;8.20;69.24;99798.00;10394232;28;20111;-80
2022/01/02 11:55:43;;;;;;;16.67;12.77;;;;;;;8.32;68.97;99800.00;10404410;28;20073;-81
2022/01/02 12:00:47;;;;;;;16.60;12.35;;;;;;;8.42;68.85;99790.78;10400736;28;20092;-81
2022/01/02 12:06:23;;;;;;;18.27;13.38;;;;;;;8.49;68.85;99760.84;10404366;28;20061;-81
2022/01/02 12:11:41;;;;;;;18.35;13.35;;;;;;;8.20;69.01;99753.72;10411818;28;20054;-81
2022/01/02 12:16:58;;;;;;;20.92;15.15;;;;;;;8.02;70.20;99734.66;10405170;28;20111;-82
2022/01/02 12:22:19;;;;;;;15.48;11.75;;;;;;;8.27;69.75;99722.97;10400426;28;20104;-81
2022/01/02 12:27:20;;;;;;;15.23;10.57;;;;;;;8.57;69.50;99726.53;10403323;28;20116;-82
2022/01/02 12:32:23;;;;;;;13.38;10.38;;;;;;;8.81;69.36;99714.78;10402505;28;20144;-82
2022/01/02 12:37:28;;;;;;;9.70;6.57;;;;;;;9.30;68.28;99723.25;10403121;28;20092;-81
2022/01/02 12:42:30;;;;;;;9.88;5.40;;;;;;;9.59;68.21;99720.63;10393832;28;20080;-81
2022/01/02 12:47:32;;;;;;;7.85;4.30;;;;;;;9.91;65.97;99716.09;10403043;28;20092;-81
2022/01/02 12:52:33;;;;;;;8.68;3.70;;;;;;;10.00;65.11;99727.78;10402395;28;20092;-82
2022/01/02 12:57:35;;;;;;;9.45;4.07;;;;;;;10.04;64.45;99706.59;10402815;28;20100;-81
2022/01/02 13:02:37;;;;;;;6.03;3.00;;;;;;;10.22;63.42;99704.63;10398513;28;20096;-82
2022/01/02 13:07:39;;;;;;;5.80;2.88;;;;;;;10.28;61.68;99707.69;10403306;28;20077;-82
2022/01/02 13:12:43;;;;;;;9.20;3.22;;;;;;;10.25;61.65;99707.06;10402681;28;20084;-82
2022/01/02 13:17:55;;;;;;;8.60;3.10;;;;;;;10.48;60.36;99724.78;10403264;28;20057;-82
2022/01/02 13:22:57;;;;;;;6.72;2.95;;;;;;;10.42;60.57;99739.06;10398862;28;20103;-82
2022/01/02 13:28:12;;;;;;;7.55;3.00;;;;;;;10.55;59.96;99749.59;10398410;28;20063;-81
2022/01/02 13:33:22;;;;;;;5.40;2.80;;;;;;;10.62;59.15;99737.81;10401069;28;20119;-81
2022/01/02 13:38:23;;;;;;;10.10;3.15;;;;;;;10.70;59.01;99730.34;10406779;28;20460;-81
2022/01/02 13:43:30;;;;;;;9.95;3.03;;;;;;;10.56;58.81;99738.22;10401069;28;20096;-82
2022/01/02 13:48:35;;;;;;;7.10;3.00;;;;;;;10.64;59.11;99751.66;10395017;28;20163;-81
2022/01/02 13:53:39;;;;;;;6.50;3.13;;;;;;;10.68;59.20;99766.22;10398969;28;20105;-82
2022/01/02 13:58:53;;;;;;;6.65;3.10;;;;;;;10.87;58.38;99774.56;10388411;28;20114;-82
2022/01/02 14:04:01;;;;;;;5.68;3.10;;;;;;;11.13;58.56;99773.75;10399852;28;20115;-83
2022/01/02 14:09:11;;;;;;;7.68;2.88;;;;;;;11.13;57.50;99773.75;10394565;28;21012;-83
2022/01/02 14:14:46;;;;;;;6.80;2.92;;;;;;;11.05;58.05;99765.56;10389901;28;20060;-83
2022/01/02 14:19:48;;;;;;;8.43;3.08;;;;;;;10.99;58.71;99765.94;10390732;28;20092;-82
2022/01/02 14:24:50;;;;;;;4.57;2.58;;;;;;;11.05;58.57;99775.22;10393103;28;20057;-83
2022/01/02 14:29:53;;;;;;;6.18;2.90;;;;;;;10.90;58.73;99787.47;10390385;28;20427;-83
2022/01/02 14:34:55;;;;;;;6.80;2.88;;;;;;;10.95;58.72;99787.19;10398989;28;20053;-82
2022/01/02 14:39:58;;;;;;;7.25;3.10;;;;;;;10.85;59.10;99786.91;10389456;28;20053;-83
2022/01/02 14:45:02;;;;;;;6.60;3.00;;;;;;;10.86;59.22;99785.13;10394699;28;20049;-83
2022/01/02 14:50:12;;;;;;;5.97;2.50;;;;;;;10.97;58.84;99787.91;10384874;28;20097;-82
2022/01/02 14:55:18;;;;;;;5.65;2.70;;;;;;;10.90;59.21;99794.47;10389058;28;20081;-83
2022/01/02 15:00:24;;;;;;;6.15;2.50;;;;;;;10.85;59.23;99788.66;10394799;28;20419;-83
2022/01/02 15:05:28;;;;;;;9.63;2.80;;;;;;;10.86;59.06;99785.97;10397428;28;20076;-83
2022/01/02 15:10:32;;;;;;;8.25;2.63;;;;;;;10.88;59.17;99789.34;10397242;28;20108;-83
2022/01/02 15:15:44;;;;;;;7.10;2.80;;;;;;;10.81;59.06;99789.78;10395927;28;20160;-83
2022/01/02 15:20:48;;;;;;;7.50;2.88;;;;;;;10.78;59.24;99788.25;10395775;28;20053;-83
2022/01/02 15:25:53;;;;;;;6.90;2.80;;;;;;;10.77;59.43;99791.78;10381867;28;20142;-82
2022/01/02 15:31:16;;;;;;;7.63;2.55;;;;;;;10.78;59.33;99788.25;10394194;28;20053;-82
2022/01/02 15:36:20;;;;;;;7.30;2.83;;;;;;;10.81;59.57;99782.78;10394593;28;20080;-83
2022/01/02 15:41:36;;;;;;;8.10;2.60;;;;;;;10.82;58.97;99776.66;10394640;28;20060;-83
2022/01/02 15:46:38;;;;;;;6.60;2.88;;;;;;;10.94;59.50;99778.47;10396569;28;20069;-83
2022/01/02 15:51:43;;;;;;;7.05;2.90;;;;;;;10.95;59.30;99788.00;10395992;28;20111;-82
2022/01/02 15:56:51;;;;;;;7.90;3.10;;;;;;;10.93;59.13;99779.41;10391037;28;20054;-82
2022/01/02 16:01:54;;;;;;;10.57;2.90;;;;;;;10.84;59.86;99787.84;10385984;28;20049;-83
2022/01/02 16:06:57;;;;;;;8.38;2.78;;;;;;;10.91;59.81;99786.50;10396627;28;20466;-82
2022/01/02 16:12:00;;;;;;;6.10;2.35;;;;;;;10.90;59.72;99774.38;10399400;28;20112;-82
2022/01/02 16:17:03;;;;;;;6.28;2.53;;;;;;;10.86;59.97;99785.97;10394438;28;20545;-81
2022/01/02 16:22:07;;;;;;;5.85;2.55;;;;;;;10.88;60.03;99778.88;10385173;28;20049;-80
2022/01/02 16:27:12;;;;;;;6.50;2.28;;;;;;;10.75;60.29;99777.94;10391960;28;20060;-79
2022/01/02 16:32:19;;;;;;;8.63;2.60;;;;;;;10.82;60.17;99784.50;10392796;28;20067;-82
2022/01/02 16:37:25;;;;;;;6.18;2.90;;;;;;;10.80;60.32;99781.13;10394735;28;20745;-81
2022/01/02 16:42:38;;;;;;;7.38;2.75;;;;;;;10.76;60.22;99769.19;10392949;28;20057;-82
2022/01/02 16:47:46;;;;;;;8.13;2.72;;;;;;;10.83;60.36;99770.47;10400205;28;20142;-82
2022/01/02 16:52:49;;;;;;;7.88;3.00;;;;;;;10.86;60.68;99762.44;10400927;28;20581;-81
2022/01/02 16:57:51;;;;;;;9.70;3.25;;;;;;;10.93;60.34;99747.19;10400194;28;20115;-81
2022/01/02 17:03:00;;;;;;;7.38;2.97;;;;;;;10.97;60.38;99744.25;10399145;28;20121;-82
2022/01/02 17:08:04;;;;;;;7.30;2.90;;;;;;;11.05;60.30;99754.28;10402043;28;20103;-81
2022/01/02 17:13:07;;;;;;;7.32;2.60;;;;;;;10.94;60.41;99752.31;10398093;28;20093;-81
2022/01/02 17:18:12;;;;;;;8.18;2.75;;;;;;;10.91;60.71;99756.91;10400178;28;20087;-81
2022/01/02 17:23:20;;;;;;;7.22;2.45;;;;;;;10.87;60.67;99748.41;10399838;28;20050;-81
2022/01/02 17:28:30;;;;;;;8.73;2.85;;;;;;;10.87;60.79;99737.09;10399392;28;20065;-80
2022/01/02 17:33:39;;;;;;;7.83;2.77;;;;;;;10.85;60.52;99736.34;10395239;28;20085;-81
2022/01/02 17:38:41;;;;;;;7.22;2.50;;;;;;;10.73;61.28;99737.97;10390086;28;20061;-81
2022/01/02 17:43:49;;;;;;;7.60;2.83;;;;;;;10.82;61.24;99721.72;10396812;28;20121;-81
2022/01/02 17:48:52;;;;;;;9.23;3.00;;;;;;;10.91;61.26;99709.81;10397084;28;20826;-81
2022/01/02 17:53:55;;;;;;;10.73;2.60;;;;;;;10.84;61.56;99726.84;10396868;28;20561;-81
2022/01/02 17:58:59;;;;;;;10.57;3.28;;;;;;;10.91;61.35;99722.91;10393675;28;20115;-80
2022/01/02 18:04:04;;;;;;;9.90;2.80;;;;;;;10.92;61.53;99717.56;10395059;28;20049;-80
2022/01/02 18:09:12;;;;;;;11.27;2.92;;;;;;;10.95;61.30;99716.53;10394111;28;20064;-80
2022/01/02 18:14:15;;;;;;;8.82;2.80;;;;;;;10.96;61.34;99718.19;10396237;28;20107;-81
2022/01/02 18:19:17;;;;;;;7.35;2.58;;;;;;;10.98;61.27;99696.22;10397295;28;20491;-81
2022/01/02 18:24:24;;;;;;;6.93;2.65;;;;;;;11.00;61.33;99696.13;10396703;28;20329;-81
2022/01/02 18:29:25;;;;;;;8.48;3.35;;;;;;;10.99;61.32;99691.84;10395501;28;20489;-80
2022/01/02 18:34:28;;;;;;;8.85;3.60;;;;;;;11.06;61.90;99701.00;10404274;28;20696;-81
2022/01/02 18:39:30;;;;;;;12.20;5.10;;;;;;;10.94;62.48;99702.59;10394227;28;20124;-80
2022/01/02 18:44:32;;;;;;;8.05;2.80;;;;;;;10.86;62.80;99689.19;10394709;28;20431;-81
2022/01/02 18:49:35;;;;;;;8.75;2.90;;;;;;;10.96;62.87;99690.25;10397496;28;20053;-80
2022/01/02 18:54:38;;;;;;;8.60;2.95;;;;;;;10.78;62.26;99683.59;10394547;28;21029;-80
2022/01/02 18:59:49;;;;;;;6.10;2.20;;;;;;;10.94;61.85;99679.06;10393716;28;20655;-79
2022/01/02 19:04:55;;;;;;;8.43;2.35;;;;;;;10.97;61.55;99654.47;10403651;28;20072;-80
2022/01/02 19:09:57;;;;;;;7.28;2.20;;;;;;;10.96;61.71;99652.78;10436155;28;20057;-80
2022/01/02 19:14:59;;;;;;;7.03;2.38;;;;;;;10.96;61.64;99635.31;10444594;28;20442;-79
2022/01/02 19:20:03;;;;;;;6.85;1.90;;;;;;;10.94;61.42;99623.25;10438633;28;20494;-80
2022/01/02 19:25:06;;;;;;;5.93;1.65;;;;;;;10.96;61.03;99630.06;10436735;28;20041;-81
2022/01/02 19:30:11;;;;;;;8.35;1.92;;;;;;;11.13;60.85;99631.63;10437463;28;20057;-79
2022/01/02 19:35:14;;;;;;;7.38;2.28;;;;;;;11.13;60.68;99627.19;10439245;28;20111;-80
2022/01/02 19:40:16;;;;;;;6.68;2.13;;;;;;;11.23;60.43;99630.88;10439512;28;20115;-80
2022/01/02 19:45:18;;;;;;;8.73;2.30;;;;;;;11.28;59.98;99630.56;10435827;28;20083;-80
2022/01/02 19:50:21;;;;;;;6.78;1.98;;;;;;;11.29;60.01;99606.91;10437686;28;20497;-80
2022/01/02 19:55:23;;;;;;;5.78;2.03;;;;;;;11.25;59.97;99589.72;10437249;28;20111;-80
2022/01/02 20:00:25;;;;;;;5.07;1.70;;;;;;;11.22;60.07;99589.94;10438696;28;20514;-80
2022/01/02 20:05:27;;;;;;;6.68;1.60;;;;;;;11.25;59.86;99581.88;10438366;28;20053;-81
2022/01/02 20:10:29;;;;;;;6.97;2.17;;;;;;;11.22;59.89;99587.31;10436567;28;20095;-81
2022/01/02 20:15:32;;;;;;;6.88;1.88;;;;;;;11.38;59.54;99591.53;10429474;28;20502;-82
2022/01/02 20:20:34;;;;;;;9.70;2.67;;;;;;;11.29;59.59;99590.38;10441405;28;20053;-80
2022/01/02 20:25:37;;;;;;;8.30;2.13;;;;;;;11.34;59.65;99574.34;10443419;28;20053;-81
2022/01/02 20:30:40;;;;;;;7.05;2.30;;;;;;;11.26;59.18;99582.72;10443965;28;20083;-81
2022/01/02 20:35:42;;;;;;;7.20;2.47;;;;;;;11.28;59.50;99563.34;10442673;28;20063;-81
2022/01/02 20:40:44;;;;;;;8.32;2.13;;;;;;;11.25;59.33;99536.56;10443393;28;20065;-80
2022/01/02 20:45:47;;;;;;;8.20;1.92;;;;;;;11.13;59.08;99534.78;10442669;28;20081;-81
2022/01/02 20:50:54;;;;;;;8.20;2.22;;;;;;;11.08;59.42;99529.84;10437034;28;20059;-81
2022/01/02 20:56:03;;;;;;;7.57;2.00;;;;;;;11.20;58.97;99530.78;10392834;28;20115;-81
2022/01/02 21:01:05;;;;;;;9.77;2.38;;;;;;;11.18;59.00;99524.81;10432996;28;20138;-81
2022/01/02 21:06:08;;;;;;;8.32;2.33;;;;;;;11.19;59.19;99521.28;10433121;28;20168;-81
2022/01/02 21:11:11;;;;;;;8.52;2.10;;;;;;;11.27;58.87;99518.97;10438735;28;20057;-81
2022/01/02 21:16:15;;;;;;;10.15;2.53;;;;;;;11.23;58.98;99520.94;10420506;28;20061;-81
2022/01/02 21:21:17;;;;;;;9.02;2.97;;;;;;;11.24;58.81;99520.00;10432963;28;20065;-82
2022/01/02 21:26:20;;;;;;;9.73;2.53;;;;;;;11.46;58.50;99497.56;10426436;28;20581;-82
2022/01/02 21:31:22;;;;;;;9.68;2.05;;;;;;;11.47;58.79;99488.75;10432301;28;20158;-82
2022/01/02 21:36:26;;;;;;;9.75;2.20;;;;;;;11.45;59.47;99490.66;10431173;28;20430;-81
2022/01/02 21:41:28;;;;;;;8.27;1.95;;;;;;;11.35;59.55;99500.94;10431763;28;20064;-81
2022/01/02 21:46:30;;;;;;;6.53;2.00;;;;;;;11.26;60.00;99507.66;10429924;28;20143;-81
2022/01/02 21:51:33;;;;;;;5.78;1.80;;;;;;;11.20;60.40;99500.22;10432274;28;20505;-81
2022/01/02 21:56:36;;;;;;;9.10;2.28;;;;;;;11.32;60.31;99508.19;10431066;28;20580;-81
2022/01/02 22:01:44;;;;;;;8.23;2.00;;;;;;;11.25;61.23;99536.56;10430317;28;20059;-81
2022/01/02 22:06:50;;;;;;;2.90;1.10;;;;;;;10.84;58.92;99596.88;10440988;28;20374;-81
2022/01/02 22:11:53;;;;;;;3.55;1.00;;;;;;;10.36;61.01;99572.13;10441396;28;20091;-80
2022/01/02 22:16:55;;;;;;;4.43;1.10;;;;;;;9.88;62.76;99570.03;10442381;28;20053;-81
2022/01/02 22:21:59;;;;;;;6.15;1.00;;;;;;;9.80;63.10;99577.50;10443676;28;20061;-81
2022/01/02 22:27:04;;;;;;;2.05;0.80;;;;;;;9.55;63.63;99577.28;10443778;28;20064;-81
2022/01/02 22:32:10;;;;;;;2.00;0.80;;;;;;;9.37;64.37;99574.03;10456765;28;20045;-81
2022/01/02 22:37:14;;;;;;;1.85;0.60;;;;;;;9.18;65.15;99591.72;10455608;28;20057;-80
2022/01/02 22:42:18;;;;;;;5.47;1.02;;;;;;;9.13;65.25;99601.59;10442584;28;20052;-81
2022/01/02 22:47:23;;;;;;;1.48;0.68;;;;;;;9.13;65.10;99590.31;10455814;28;20057;-80
2022/01/02 22:52:25;;;;;;;0.70;0.70;;;;;;;9.11;65.55;99590.41;10441490;28;20490;-81
2022/01/02 22:57:29;;;;;;;1.63;0.68;;;;;;;9.08;65.84;99608.84;10438642;28;20049;-81
2022/01/02 23:02:32;;;;;;;1.33;0.57;;;;;;;8.96;65.90;99595.69;10437704;28;20061;-81
2022/01/02 23:07:34;;;;;;;2.40;0.80;;;;;;;9.00;65.69;99597.19;10431582;28;20525;-81
2022/01/02 23:12:36;;;;;;;3.63;1.10;;;;;;;8.82;65.39;99588.66;10437875;28;20714;-80
2022/01/02 23:17:39;;;;;;;3.47;0.90;;;;;;;8.93;65.11;99599.31;10439266;28;20106;-81
2022/01/02 23:22:42;;;;;;;2.97;0.85;;;;;;;8.92;65.30;99608.06;10438264;28;20533;-81
2022/01/02 23:27:47;;;;;;;3.08;0.80;;;;;;;9.10;64.96;99629.63;10429635;28;20065;-81